Terminal Aerodrome Forecast
Issued by NWS

Home | Current Version | Previous Version | Text Only | Print | Product List | Glossary On
Versions: 1 2 3 4 5 6 7 8 9 10 11 12 13 14
000
FTUS44 KLUB 241700 CCA
TAFCDS
TAF COR
KCDS 241736Z 2418/2518 34016KT P6SM SKC
     FM242200 15006KT P6SM SCT350
     FM251500 19014KT P6SM FEW350=

USA.gov is the U.S. government's official web portal to all federal, state and local government web resources and services.